Time;durP1;ratioP1;P1;durP2;ratioP2;P2;SDS_P1;SDS_P2;PMS_P1;PMS_P2;Temp;Humidity;BMP_temperature;BMP_pressure;BME280_temperature;BME280_humidity;BME280_pressure;Samples;Min_cycle;Max_cycle;Signal;HPM_P1;HPM_P2
2021/02/16 00:01:53;;;;;;;2.7;1.8;;;;;;;;;;;;;
2021/02/16 00:04:20;;;;;;;1.5;1;;;;;;;;;;;;;
2021/02/16 00:06:45;;;;;;;4.3;1.9;;;;;;;;;;;;;
2021/02/16 00:09:11;;;;;;;4.2;2;;;;;;;;;;;;;
2021/02/16 00:11:42;;;;;;;2.3;1.4;;;;;;;;;;;;;
2021/02/16 00:14:14;;;;;;;5.4;1.4;;;;;;;;;;;;;
2021/02/16 00:16:49;;;;;;;1;0.8;;;;;;;;;;;;;
2021/02/16 00:19:18;;;;;;;0.5;0.5;;;;;;;;;;;;;
2021/02/16 00:21:50;;;;;;;1.1;0.9;;;;;;;;;;;;;
2021/02/16 00:24:21;;;;;;;1.4;1.2;;;;;;;;;;;;;
2021/02/16 00:26:50;;;;;;;1.8;1.5;;;;;;;;;;;;;
2021/02/16 00:29:20;;;;;;;2.6;1.5;;;;;;;;;;;;;
2021/02/16 00:31:45;;;;;;;4.4;1.1;;;;;;;;;;;;;
2021/02/16 00:34:12;;;;;;;3.2;0.9;;;;;;;;;;;;;
2021/02/16 00:36:37;;;;;;;2.1;1.4;;;;;;;;;;;;;
2021/02/16 00:39:03;;;;;;;0.7;0.7;;;;;;;;;;;;;
2021/02/16 00:41:28;;;;;;;1.6;1.3;;;;;;;;;;;;;
2021/02/16 00:43:55;;;;;;;1.3;1.1;;;;;;;;;;;;;
2021/02/16 00:46:20;;;;;;;2.1;1.3;;;;;;;;;;;;;
2021/02/16 00:48:45;;;;;;;0.8;0.8;;;;;;;;;;;;;
2021/02/16 00:51:10;;;;;;;1.3;0.8;;;;;;;;;;;;;
2021/02/16 00:53:36;;;;;;;1.7;0.9;;;;;;;;;;;;;
2021/02/16 00:56:01;;;;;;;1.5;1;;;;;;;;;;;;;
2021/02/16 00:58:27;;;;;;;1.6;1.1;;;;;;;;;;;;;
2021/02/16 01:00:52;;;;;;;1.6;0.7;;;;;;;;;;;;;
2021/02/16 01:03:17;;;;;;;1.4;1.1;;;;;;;;;;;;;
2021/02/16 01:05:43;;;;;;;4;1.4;;;;;;;;;;;;;
2021/02/16 01:08:09;;;;;;;1.6;1.3;;;;;;;;;;;;;
2021/02/16 01:10:34;;;;;;;2.1;1.2;;;;;;;;;;;;;
2021/02/16 01:12:59;;;;;;;0.5;0.5;;;;;;;;;;;;;
2021/02/16 01:15:26;;;;;;;2;1.2;;;;;;;;;;;;;
2021/02/16 01:17:55;;;;;;;7.5;0.8;;;;;;;;;;;;;
2021/02/16 01:20:20;;;;;;;0.5;0.5;;;;;;;;;;;;;
2021/02/16 01:22:46;;;;;;;1.5;0.7;;;;;;;;;;;;;
2021/02/16 01:25:11;;;;;;;0.3;0.3;;;;;;;;;;;;;
2021/02/16 01:27:37;;;;;;;0.3;0.3;;;;;;;;;;;;;
2021/02/16 01:30:02;;;;;;;0.8;0.6;;;;;;;;;;;;;
2021/02/16 01:32:29;;;;;;;0.4;0.4;;;;;;;;;;;;;
2021/02/16 01:34:54;;;;;;;0.7;0.6;;;;;;;;;;;;;
2021/02/16 01:37:20;;;;;;;3;0.8;;;;;;;;;;;;;
2021/02/16 01:39:45;;;;;;;1.2;1;;;;;;;;;;;;;
2021/02/16 01:42:12;;;;;;;1.2;1;;;;;;;;;;;;;
2021/02/16 01:44:37;;;;;;;2.1;0.9;;;;;;;;;;;;;
2021/02/16 01:47:02;;;;;;;1.7;0.8;;;;;;;;;;;;;
2021/02/16 01:49:28;;;;;;;0.9;0.6;;;;;;;;;;;;;
2021/02/16 01:51:53;;;;;;;2;0.9;;;;;;;;;;;;;
2021/02/16 01:54:18;;;;;;;1;0.8;;;;;;;;;;;;;
2021/02/16 01:56:45;;;;;;;1.3;0.9;;;;;;;;;;;;;
2021/02/16 01:59:10;;;;;;;1.8;1.3;;;;;;;;;;;;;
2021/02/16 02:01:38;;;;;;;0.6;0.6;;;;;;;;;;;;;
2021/02/16 02:04:02;;;;;;;0.7;0.7;;;;;;;;;;;;;
2021/02/16 02:06:28;;;;;;;0.7;0.7;;;;;;;;;;;;;
2021/02/16 02:08:53;;;;;;;1.4;0.9;;;;;;;;;;;;;
2021/02/16 02:11:19;;;;;;;0.5;0.5;;;;;;;;;;;;;
2021/02/16 02:13:44;;;;;;;1.8;1;;;;;;;;;;;;;
2021/02/16 02:16:12;;;;;;;1.1;0.6;;;;;;;;;;;;;
2021/02/16 02:18:37;;;;;;;0.8;0.8;;;;;;;;;;;;;
2021/02/16 02:21:02;;;;;;;0.6;0.4;;;;;;;;;;;;;
2021/02/16 02:23:27;;;;;;;1.3;0.7;;;;;;;;;;;;;
2021/02/16 02:25:54;;;;;;;0.3;0.3;;;;;;;;;;;;;
2021/02/16 02:28:23;;;;;;;1.4;0.7;;;;;;;;;;;;;
2021/02/16 02:30:47;;;;;;;0.7;0.6;;;;;;;;;;;;;
2021/02/16 02:33:30;;;;;;;0.6;0.5;;;;;;;;;;;;;
2021/02/16 02:35:42;;;;;;;0.8;0.6;;;;;;;;;;;;;
2021/02/16 02:37:58;;;;;;;0.6;0.6;;;;;;;;;;;;;
2021/02/16 02:40:24;;;;;;;0.8;0.6;;;;;;;;;;;;;
2021/02/16 02:42:49;;;;;;;0.2;0.2;;;;;;;;;;;;;
2021/02/16 02:45:14;;;;;;;0.4;0.4;;;;;;;;;;;;;
2021/02/16 02:47:39;;;;;;;0.5;0.5;;;;;;;;;;;;;
2021/02/16 02:50:04;;;;;;;0.4;0.4;;;;;;;;;;;;;
2021/02/16 02:52:48;;;;;;;0.2;0.2;;;;;;;;;;;;;
2021/02/16 02:54:55;;;;;;;0.3;0.3;;;;;;;;;;;;;
2021/02/16 02:57:20;;;;;;;0.3;0.3;;;;;;;;;;;;;
2021/02/16 02:59:45;;;;;;;0.3;0.3;;;;;;;;;;;;;
2021/02/16 03:02:11;;;;;;;0.1;0.1;;;;;;;;;;;;;
2021/02/16 03:04:40;;;;;;;0.9;0.4;;;;;;;;;;;;;
2021/02/16 03:07:06;;;;;;;0.5;0.5;;;;;;;;;;;;;
2021/02/16 03:09:32;;;;;;;1.8;0.5;;;;;;;;;;;;;
2021/02/16 03:12:01;;;;;;;1.3;0.8;;;;;;;;;;;;;
2021/02/16 03:15:18;;;;;;;1.5;1.1;;;;;;;;;;;;;
2021/02/16 03:26:25;;;;;;;2.3;1.4;;;;;;;;;;;;;
2021/02/16 03:28:51;;;;;;;3;1.8;;;;;;;;;;;;;
2021/02/16 03:31:16;;;;;;;1.2;1.1;;;;;;;;;;;;;
2021/02/16 03:33:42;;;;;;;1.8;1.4;;;;;;;;;;;;;
2021/02/16 03:36:07;;;;;;;2.9;1.1;;;;;;;;;;;;;
2021/02/16 03:38:33;;;;;;;0.7;0.7;;;;;;;;;;;;;
2021/02/16 03:40:58;;;;;;;1.9;1.3;;;;;;;;;;;;;
2021/02/16 03:43:24;;;;;;;0.9;0.7;;;;;;;;;;;;;
2021/02/16 03:45:49;;;;;;;1.5;1.1;;;;;;;;;;;;;
2021/02/16 03:48:15;;;;;;;1.4;0.9;;;;;;;;;;;;;
2021/02/16 03:50:41;;;;;;;1.1;1;;;;;;;;;;;;;
2021/02/16 03:53:06;;;;;;;1.2;0.7;;;;;;;;;;;;;
2021/02/16 03:55:31;;;;;;;0.4;0.4;;;;;;;;;;;;;
2021/02/16 03:57:57;;;;;;;9.2;0.8;;;;;;;;;;;;;
2021/02/16 04:02:30;;;;;;;1.6;0.8;;;;;;;4.64;87.15723;945.2064;;;;
2021/02/16 04:04:55;;;;;;;0.9;0.8;;;;;;;4.73;86.59961;945.2078;;;;
2021/02/16 04:07:22;;;;;;;0.4;0.4;;;;;;;4.82;85.9668;945.1308;;;;
2021/02/16 04:09:47;;;;;;;0.6;0.6;;;;;;;4.64;86.55859;945.1289;;;;
2021/02/16 04:12:19;;;;;;;0.8;0.6;;;;;;;4.52;87.25586;945.1242;;;;
2021/02/16 04:14:49;;;;;;;1.3;0.7;;;;;;;4.68;86.52246;945.0787;;;;
2021/02/16 04:17:21;;;;;;;2.8;0.8;;;;;;;4.78;85.97949;945.0931;;;;
2021/02/16 04:19:53;;;;;;;2.5;1.2;;;;;;;4.71;86.04395;945.1384;;;;
2021/02/16 04:22:18;;;;;;;1.2;0.7;;;;;;;4.65;86.60547;945.1072;;;;
2021/02/16 04:24:49;;;;;;;0.7;0.7;;;;;;;4.62;87.24219;945.118;;;;
2021/02/16 04:27:14;;;;;;;2.1;0.9;;;;;;;4.7;86.49316;945.1127;;;;
2021/02/16 04:29:44;;;;;;;1.1;1;;;;;;;4.53;87.24609;945.2012;;;;
2021/02/16 04:32:16;;;;;;;1.5;1;;;;;;;4.56;87.49023;945.1381;;;;
2021/02/16 04:34:47;;;;;;;0.7;0.7;;;;;;;4.65;86.95703;945.1036;;;;
2021/02/16 04:37:17;;;;;;;1.3;0.8;;;;;;;4.72;86.68945;945.0923;;;;
2021/02/16 04:39:47;;;;;;;1.8;1;;;;;;;4.56;87.63477;945.0591;;;;
2021/02/16 04:42:12;;;;;;;2.1;1;;;;;;;4.69;87.30176;945.0325;;;;
2021/02/16 04:44:42;;;;;;;1.1;1;;;;;;;4.81;86.55762;945.1245;;;;
2021/02/16 04:47:16;;;;;;;1.1;0.9;;;;;;;4.86;86.32129;945.0801;;;;
2021/02/16 04:49:49;;;;;;;2;0.5;;;;;;;4.93;85.83984;945.0813;;;;
2021/02/16 04:52:22;;;;;;;6.8;1.2;;;;;;;4.8;85.80273;945.1145;;;;
2021/02/16 04:54:52;;;;;;;1.3;1;;;;;;;4.77;86.21484;945.0344;;;;
2021/02/16 04:57:22;;;;;;;1.5;1;;;;;;;4.71;86.51855;944.961;;;;
2021/02/16 04:59:52;;;;;;;1.1;1;;;;;;;4.66;86.88867;944.9445;;;;
2021/02/16 05:02:17;;;;;;;6.8;0.8;;;;;;;4.78;86.48633;944.9127;;;;
2021/02/16 05:04:47;;;;;;;6.7;1;;;;;;;4.79;85.86914;944.8915;;;;
2021/02/16 05:07:12;;;;;;;2.3;1;;;;;;;4.63;86.47852;944.8833;;;;
2021/02/16 05:09:39;;;;;;;1.9;1.1;;;;;;;4.77;86.49414;944.8622;;;;
2021/02/16 05:12:11;;;;;;;1.8;1.2;;;;;;;4.76;85.95313;944.7729;;;;
2021/02/16 05:20:14;;;;;;;1.1;0.9;;;;;;;4.34;89.16504;944.8205;;;;
2021/02/16 05:21:57;;;;;;;2.4;1.6;;;;;;;4.44;88.91797;944.8711;;;;
2021/02/16 05:24:16;;;;;;;1.1;1;;;;;;;4.62;88.27832;944.8339;;;;
2021/02/16 05:26:42;;;;;;;2.1;1.3;;;;;;;4.74;87.57227;944.8336;;;;
2021/02/16 05:29:13;;;;;;;3.5;2.6;;;;;;;4.76;87.37109;944.8192;;;;
2021/02/16 05:31:38;;;;;;;3.2;2.4;;;;;;;4.74;87.25684;944.6995;;;;
2021/02/16 05:34:08;;;;;;;6;2.3;;;;;;;4.68;87.19824;944.7079;;;;
2021/02/16 05:36:34;;;;;;;3.7;2.2;;;;;;;4.64;87.68457;944.6541;;;;
2021/02/16 05:38:59;;;;;;;7.3;2.6;;;;;;;4.73;87.69238;944.6083;;;;
2021/02/16 05:41:24;;;;;;;9.3;2.6;;;;;;;4.58;87.80859;944.6453;;;;
2021/02/16 05:43:57;;;;;;;4.2;2;;;;;;;4.56;87.81641;944.623;;;;
2021/02/16 05:46:30;;;;;;;4.6;3.1;;;;;;;4.52;88.06641;944.6348;;;;
2021/02/16 05:49:01;;;;;;;10;3.8;;;;;;;4.24;89.38086;944.6052;;;;
2021/02/16 05:51:34;;;;;;;8.8;4.6;;;;;;;4.17;90.16504;944.5157;;;;
2021/02/16 05:53:59;;;;;;;5.6;2.7;;;;;;;4.18;90.65039;944.4453;;;;
2021/02/16 05:56:27;;;;;;;5.8;2.5;;;;;;;4.02;91.44824;944.4589;;;;
2021/02/16 05:58:51;;;;;;;3.3;2.1;;;;;;;4.14;91.21582;944.3989;;;;
2021/02/16 06:01:16;;;;;;;6.5;2.3;;;;;;;3.99;92.33008;944.3629;;;;
2021/02/16 06:03:44;;;;;;;5.3;2.7;;;;;;;3.97;92.79883;944.3242;;;;
2021/02/16 06:06:10;;;;;;;4.6;2.8;;;;;;;3.91;93.48438;944.3215;;;;
2021/02/16 06:08:34;;;;;;;5.1;2.8;;;;;;;3.86;94.13574;944.2775;;;;
2021/02/16 06:11:03;;;;;;;5.9;2.7;;;;;;;3.95;93.81836;944.2335;;;;
2021/02/16 06:13:35;;;;;;;8.6;2.8;;;;;;;3.93;93.87012;944.2556;;;;
2021/02/16 06:16:24;;;;;;;4;1.8;;;;;;;4;93.66113;944.2175;;;;
2021/02/16 06:18:53;;;;;;;2.9;1.7;;;;;;;4.02;93.6543;944.2092;;;;
2021/02/16 06:21:34;;;;;;;2.7;1.7;;;;;;;4.08;93.91309;944.2447;;;;
2021/02/16 06:24:08;;;;;;;1.6;1.4;;;;;;;4.04;93.80371;944.2596;;;;
2021/02/16 06:26:33;;;;;;;2.5;1.4;;;;;;;4.08;93.90234;944.2731;;;;
2021/02/16 06:29:04;;;;;;;6.9;1.2;;;;;;;4.05;93.96191;944.1898;;;;
2021/02/16 06:31:29;;;;;;;2.4;1.3;;;;;;;3.96;94.30371;944.1615;;;;
2021/02/16 06:33:54;;;;;;;2.8;1.7;;;;;;;4;94.8291;944.2748;;;;
2021/02/16 06:36:22;;;;;;;3.9;2.1;;;;;;;3.98;94.92773;944.3114;;;;
2021/02/16 06:38:54;;;;;;;2.2;2;;;;;;;4.08;95.03809;944.2778;;;;
2021/02/16 06:41:25;;;;;;;3;2.1;;;;;;;4.13;95.14258;944.2622;;;;
2021/02/16 06:43:55;;;;;;;5.4;3.2;;;;;;;4.25;94.78613;944.3141;;;;
2021/02/16 06:46:27;;;;;;;4.7;2.8;;;;;;;4.43;94.09375;944.3953;;;;
2021/02/16 06:48:57;;;;;;;6;3.6;;;;;;;4.6;93.22949;944.3406;;;;
2021/02/16 06:51:28;;;;;;;9.1;3.1;;;;;;;4.76;92.42871;944.259;;;;
2021/02/16 06:53:59;;;;;;;3.6;2.2;;;;;;;4.83;91.30664;944.3256;;;;
2021/02/16 06:56:26;;;;;;;3.1;1.7;;;;;;;4.9;90.49023;944.199;;;;
2021/02/16 06:58:52;;;;;;;3.5;1.7;;;;;;;4.9;89.76953;944.2391;;;;
2021/02/16 07:01:25;;;;;;;3;2;;;;;;;4.94;89.38184;944.2543;;;;
2021/02/16 07:03:49;;;;;;;7.8;2.9;;;;;;;4.93;89.23242;944.2552;;;;
2021/02/16 07:08:43;;;;;;;3.1;2;;;;;;;5.17;89.02344;944.2747;;;;
2021/02/16 07:11:02;;;;;;;6.1;2.7;;;;;;;5.22;88.21191;944.3061;;;;
2021/02/16 07:13:24;;;;;;;2.9;2;;;;;;;5.12;88.32617;944.2048;;;;
2021/02/16 07:15:58;;;;;;;2;1.6;;;;;;;5.19;88.58789;944.2042;;;;
2021/02/16 07:18:26;;;;;;;22.1;14;;;;;;;5.22;88.7168;944.1599;;;;
2021/02/16 07:20:58;;;;;;;4.9;3.3;;;;;;;5.09;89.6377;944.0812;;;;
2021/02/16 07:23:25;;;;;;;31.9;12.1;;;;;;;5.17;89.45215;944.0771;;;;
2021/02/16 07:30:51;;;;;;;7.7;1.7;;;;;;;5.34;89.49902;944.055;;;;
2021/02/16 07:33:18;;;;;;;3.1;2.1;;;;;;;5.46;89.41113;944.0581;;;;
2021/02/16 07:35:48;;;;;;;3.8;2.7;;;;;;;5.59;89.02148;944.0544;;;;
2021/02/16 07:38:18;;;;;;;3.8;2.2;;;;;;;5.69;88.80566;944.045;;;;
2021/02/16 07:40:43;;;;;;;6.1;2.6;;;;;;;5.8;88.16016;944.0402;;;;
2021/02/16 07:43:10;;;;;;;5.5;2.7;;;;;;;5.85;87.26758;944.1;;;;
2021/02/16 07:45:35;;;;;;;9.6;2.5;;;;;;;5.87;87.0918;944.0249;;;;
2021/02/16 07:48:02;;;;;;;3.2;2;;;;;;;5.91;87;944.1161;;;;
2021/02/16 07:50:34;;;;;;;2.9;2.2;;;;;;;5.89;87.16211;944.027;;;;
2021/02/16 07:53:03;;;;;;;3.4;2;;;;;;;5.78;87.58203;944.0626;;;;
2021/02/16 07:55:27;;;;;;;2.5;1.6;;;;;;;5.7;88.12988;944.0303;;;;
2021/02/16 07:57:53;;;;;;;4.3;2.8;;;;;;;5.73;88.38184;944.0438;;;;
2021/02/16 08:00:18;;;;;;;4;2.6;;;;;;;5.66;88.63086;943.8148;;;;
2021/02/16 08:02:48;;;;;;;4.6;3.2;;;;;;;5.52;89.39063;943.8723;;;;
2021/02/16 08:05:19;;;;;;;4.1;2.7;;;;;;;5.48;90.03711;943.8884;;;;
2021/02/16 08:07:49;;;;;;;3.9;2.7;;;;;;;5.41;90.36035;943.8731;;;;
2021/02/16 08:10:28;;;;;;;5.3;2.4;;;;;;;5.44;91.04297;943.8513;;;;
2021/02/16 08:13:06;;;;;;;5.9;4.4;;;;;;;5.55;90.71484;943.8117;;;;
2021/02/16 08:15:41;;;;;;;7.4;3.4;;;;;;;5.55;91.05469;943.77;;;;
2021/02/16 08:18:19;;;;;;;6.9;4.1;;;;;;;5.74;90.16992;943.6738;;;;
2021/02/16 08:20:54;;;;;;;6.7;4.9;;;;;;;5.81;89.83496;943.807;;;;
2021/02/16 08:23:23;;;;;;;7.2;5.5;;;;;;;6.13;89.13281;943.7137;;;;
2021/02/16 08:26:00;;;;;;;4.8;2.8;;;;;;;6.29;87.87793;943.7932;;;;
2021/02/16 08:28:25;;;;;;;4.3;2.7;;;;;;;6.29;87.64063;943.7481;;;;
2021/02/16 08:31:01;;;;;;;7.4;2.9;;;;;;;6.57;86.81543;943.6549;;;;
2021/02/16 08:33:28;;;;;;;5.1;2.9;;;;;;;6.63;86.2959;943.6335;;;;
2021/02/16 08:36:02;;;;;;;5.9;2.1;;;;;;;6.63;86.16016;943.5354;;;;
2021/02/16 08:38:27;;;;;;;4.4;2.1;;;;;;;6.85;86.39648;943.5853;;;;
2021/02/16 08:40:59;;;;;;;2.3;1.8;;;;;;;7.2;84.96973;943.4879;;;;
2021/02/16 08:43:33;;;;;;;1.7;1.2;;;;;;;7.86;83.61621;943.4719;;;;
2021/02/16 08:46:09;;;;;;;2.1;1.5;;;;;;;8.6;79.17969;943.4055;;;;
2021/02/16 08:48:36;;;;;;;10;6.5;;;;;;;8.43;78.5;943.4669;;;;
2021/02/16 08:51:02;;;;;;;2.8;1.8;;;;;;;8.17;80.36035;943.3837;;;;
2021/02/16 08:53:35;;;;;;;2.2;1;;;;;;;7.74;81.8457;943.4986;;;;
2021/02/16 08:56:07;;;;;;;1;0.6;;;;;;;7.76;82.17871;943.4728;;;;
2021/02/16 08:58:43;;;;;;;10.9;6.2;;;;;;;7.78;82.27246;943.4606;;;;
2021/02/16 09:01:22;;;;;;;2.1;1.7;;;;;;;7.75;82.47168;943.3593;;;;
2021/02/16 09:03:56;;;;;;;17.6;9.5;;;;;;;7.88;82.32617;943.3829;;;;
2021/02/16 09:06:35;;;;;;;2.6;1.7;;;;;;;7.94;82.29102;943.3694;;;;
2021/02/16 09:09:02;;;;;;;8.2;3.9;;;;;;;7.96;81.79688;943.301;;;;
2021/02/16 09:11:32;;;;;;;10.1;4.6;;;;;;;7.82;82.63184;943.3844;;;;
2021/02/16 09:14:06;;;;;;;59;26.6;;;;;;;8.09;82.12695;943.3825;;;;
2021/02/16 09:16:51;;;;;;;19.2;11.1;;;;;;;7.9;81.88672;943.3802;;;;
2021/02/16 09:19:28;;;;;;;1.9;1.5;;;;;;;8.06;82.06543;943.4373;;;;
2021/02/16 09:22:05;;;;;;;1.4;1.3;;;;;;;8.09;82.22949;943.3716;;;;
2021/02/16 09:24:44;;;;;;;5.7;2.2;;;;;;;8.44;80.84375;943.2855;;;;
2021/02/16 09:27:17;;;;;;;2.8;1.9;;;;;;;8.73;80.07813;943.3795;;;;
2021/02/16 09:29:49;;;;;;;1.6;1.3;;;;;;;8.81;79.44531;943.3397;;;;
2021/02/16 09:32:32;;;;;;;3.6;2;;;;;;;8.67;79.75;943.2764;;;;
2021/02/16 09:35:11;;;;;;;2.2;1.4;;;;;;;8.6;80.24805;943.2332;;;;
2021/02/16 09:37:36;;;;;;;3.9;1.8;;;;;;;8.49;81.14844;943.1733;;;;
2021/02/16 09:40:04;;;;;;;7.6;4.3;;;;;;;8.83;80.9043;943.1567;;;;
2021/02/16 09:43:50;;;;;;;1.4;1.3;;;;;;;8.97;80.21484;943.1027;;;;
2021/02/16 09:44:59;;;;;;;4.6;1.5;;;;;;;9.06;80.08301;943.0814;;;;
2021/02/16 09:47:30;;;;;;;3.8;2.2;;;;;;;9;79.5957;942.9939;;;;
2021/02/16 09:50:00;;;;;;;2.1;1.4;;;;;;;8.71;80.08594;942.9813;;;;
2021/02/16 09:52:26;;;;;;;12.4;6.1;;;;;;;8.62;81.2627;943.0411;;;;
2021/02/16 09:54:56;;;;;;;7.2;2.3;;;;;;;8.54;81.15625;942.9681;;;;
2021/02/16 09:57:34;;;;;;;5.7;3.1;;;;;;;8.54;81.58984;942.942;;;;
2021/02/16 10:00:01;;;;;;;10;5.6;;;;;;;8.51;81.53809;942.9492;;;;
2021/02/16 10:02:33;;;;;;;5;3;;;;;;;8.33;81.84473;942.9647;;;;
2021/02/16 10:05:03;;;;;;;7.1;2.4;;;;;;;8.36;82.22461;942.9331;;;;
2021/02/16 10:07:30;;;;;;;11.5;7.1;;;;;;;8.43;81.625;942.9003;;;;
2021/02/16 10:10:00;;;;;;;1;0.9;;;;;;;8.42;80.49805;942.7851;;;;
2021/02/16 10:12:32;;;;;;;1.4;0.9;;;;;;;8.47;80.9834;942.8235;;;;
2021/02/16 10:15:12;;;;;;;2.7;1.1;;;;;;;8.54;81.08789;942.8148;;;;
2021/02/16 10:17:47;;;;;;;1.5;1.3;;;;;;;8.58;80.39063;942.8953;;;;
2021/02/16 10:20:23;;;;;;;1.1;0.9;;;;;;;8.68;79.52441;942.8608;;;;
2021/02/16 10:22:53;;;;;;;1.4;1.2;;;;;;;8.64;79.37891;942.8502;;;;
2021/02/16 10:25:31;;;;;;;1.7;1.1;;;;;;;8.8;79.89844;942.885;;;;
2021/02/16 10:28:12;;;;;;;2.1;1.2;;;;;;;8.97;79.80469;942.9971;;;;
2021/02/16 10:30:56;;;;;;;1.3;0.6;;;;;;;8.8;80.11426;943.0097;;;;
2021/02/16 10:33:21;;;;;;;1.4;0.9;;;;;;;8.61;81.05859;942.9758;;;;
2021/02/16 10:35:59;;;;;;;1.6;0.9;;;;;;;8.62;82.08105;942.9418;;;;
2021/02/16 10:38:19;;;;;;;1.7;1.2;;;;;;;8.72;81.79297;942.9036;;;;
2021/02/16 10:40:58;;;;;;;2.1;1.2;;;;;;;8.85;81.23926;942.8166;;;;
2021/02/16 10:43:27;;;;;;;2.1;1.4;;;;;;;8.97;80.375;942.7447;;;;
2021/02/16 10:46:02;;;;;;;1.4;1.2;;;;;;;9.13;80.76855;942.6944;;;;
2021/02/16 10:48:32;;;;;;;1.4;1;;;;;;;9.21;79.78027;942.675;;;;
2021/02/16 10:51:13;;;;;;;2.3;0.9;;;;;;;9.13;79.99414;942.6181;;;;
2021/02/16 10:53:41;;;;;;;4;2.8;;;;;;;9.11;80.02344;942.5963;;;;
2021/02/16 10:56:20;;;;;;;5.4;2.6;;;;;;;9.26;80.43848;942.5696;;;;
2021/02/16 10:58:45;;;;;;;2;1.3;;;;;;;9.35;79.29395;942.4777;;;;
2021/02/16 11:01:13;;;;;;;4;1.3;;;;;;;9.51;79.00391;942.427;;;;
2021/02/16 11:03:39;;;;;;;1.5;0.9;;;;;;;9.74;76.52832;942.3873;;;;
2021/02/16 11:06:10;;;;;;;0.7;0.7;;;;;;;10.02;76.30371;942.3621;;;;
2021/02/16 11:08:40;;;;;;;1.5;1;;;;;;;10.45;75.125;942.4572;;;;
2021/02/16 11:11:13;;;;;;;2;1.5;;;;;;;10.78;73.71875;942.3934;;;;
2021/02/16 11:13:42;;;;;;;0.9;0.9;;;;;;;10.92;72.07324;942.285;;;;
2021/02/16 11:16:11;;;;;;;2.2;1;;;;;;;10.82;72.44727;942.2501;;;;
2021/02/16 11:18:48;;;;;;;2.8;1.1;;;;;;;10.96;72.01367;942.1605;;;;
2021/02/16 11:21:23;;;;;;;1.5;1.3;;;;;;;11;73.02637;942.1594;;;;
2021/02/16 11:23:54;;;;;;;1.5;0.9;;;;;;;11.28;71.72168;942.0201;;;;
2021/02/16 11:26:23;;;;;;;1.2;0.8;;;;;;;11.65;71.47559;942.0157;;;;
2021/02/16 11:28:56;;;;;;;0.4;0.4;;;;;;;11.83;69.66211;942.0047;;;;
2021/02/16 11:31:28;;;;;;;0.1;0.1;;;;;;;11.34;67.14648;941.8791;;;;
2021/02/16 11:34:03;;;;;;;0.8;0.5;;;;;;;11.5;68.39551;941.8622;;;;
2021/02/16 11:36:33;;;;;;;1.2;0.4;;;;;;;11.43;70.04297;941.8;;;;
2021/02/16 11:39:07;;;;;;;1.5;0.8;;;;;;;11.56;70.41797;941.6889;;;;
2021/02/16 11:41:45;;;;;;;0.6;0.6;;;;;;;11.66;70.92676;941.7612;;;;
2021/02/16 11:44:13;;;;;;;0.6;0.5;;;;;;;11.86;69.87207;941.6827;;;;
2021/02/16 11:46:38;;;;;;;0.5;0.5;;;;;;;11.85;69.74512;941.558;;;;
2021/02/16 11:49:12;;;;;;;1.6;0.8;;;;;;;11.98;69.84668;941.6136;;;;
2021/02/16 11:51:44;;;;;;;1;0.5;;;;;;;12.3;68.8418;941.4739;;;;
2021/02/16 11:54:22;;;;;;;1.5;0.8;;;;;;;12.31;68.9248;941.4773;;;;
2021/02/16 11:56:50;;;;;;;1.3;1.2;;;;;;;12.56;68.5293;941.4203;;;;
2021/02/16 11:59:28;;;;;;;1.4;0.5;;;;;;;13.26;66.13379;941.3935;;;;
2021/02/16 12:02:00;;;;;;;1.7;0.8;;;;;;;14.25;62.73828;941.366;;;;
2021/02/16 12:04:31;;;;;;;0.5;0.4;;;;;;;14.14;60.85547;941.3672;;;;
2021/02/16 12:07:10;;;;;;;0.7;0.4;;;;;;;13.38;63.00391;941.3613;;;;
2021/02/16 12:09:37;;;;;;;0.3;0.3;;;;;;;13.19;64.34375;941.3386;;;;
2021/02/16 12:12:11;;;;;;;1.1;0.5;;;;;;;14.18;61.80469;941.3127;;;;
2021/02/16 12:14:41;;;;;;;0.3;0.3;;;;;;;14.16;58.82031;941.2607;;;;
2021/02/16 12:17:22;;;;;;;0.5;0.4;;;;;;;14.79;57.74121;941.2084;;;;
2021/02/16 12:20:00;;;;;;;0.3;0.3;;;;;;;15;57.16895;941.1384;;;;
2021/02/16 12:22:40;;;;;;;0.6;0.5;;;;;;;15.53;56.18848;941.1597;;;;
2021/02/16 12:25:06;;;;;;;0.9;0.8;;;;;;;16.25;55.25195;941.1863;;;;
2021/02/16 12:27:42;;;;;;;2.1;0.5;;;;;;;17.15;52.55957;941.1133;;;;
2021/02/16 12:30:09;;;;;;;1.3;0.8;;;;;;;17.74;50.06445;941.063;;;;
2021/02/16 12:32:35;;;;;;;0.2;0.1;;;;;;;17.63;49.63379;941.0513;;;;
2021/02/16 12:35:13;;;;;;;2.3;0.4;;;;;;;17.11;50.58301;940.9536;;;;
2021/02/16 12:37:44;;;;;;;0.5;0.1;;;;;;;16.77;50.66113;940.9752;;;;
2021/02/16 12:40:23;;;;;;;1;0.3;;;;;;;16.98;51.06738;940.9347;;;;
2021/02/16 12:42:53;;;;;;;1.2;0.6;;;;;;;16.55;51.54883;940.9518;;;;
2021/02/16 12:45:23;;;;;;;0.1;0.1;;;;;;;15.44;54.41016;940.9731;;;;
2021/02/16 12:47:55;;;;;;;0.3;0.3;;;;;;;15.19;56.53711;940.9536;;;;
2021/02/16 12:50:21;;;;;;;0.8;0.4;;;;;;;14.6;57.07129;940.9088;;;;
2021/02/16 12:52:49;;;;;;;0.8;0.6;;;;;;;14.55;57.60742;940.8247;;;;
2021/02/16 12:55:17;;;;;;;1.7;0.7;;;;;;;14.34;58.23535;940.8613;;;;
2021/02/16 12:57:42;;;;;;;0.1;0.1;;;;;;;14.71;57.96191;940.7991;;;;
2021/02/16 13:00:17;;;;;;;0.2;0.1;;;;;;;15.04;56.58691;940.7512;;;;
2021/02/16 13:02:49;;;;;;;0.1;0.1;;;;;;;15.89;54.52344;940.7939;;;;
2021/02/16 13:05:22;;;;;;;0.8;0.5;;;;;;;16.4;53.8125;940.8002;;;;
2021/02/16 13:07:47;;;;;;;0.5;0.4;;;;;;;16.54;52.60254;940.6649;;;;
2021/02/16 13:10:16;;;;;;;0.6;0.3;;;;;;;15.62;54.27148;940.7794;;;;
2021/02/16 13:12:41;;;;;;;0.6;0.5;;;;;;;14.72;58.0332;940.7292;;;;
2021/02/16 13:15:14;;;;;;;0.5;0.4;;;;;;;14.83;58.625;940.7012;;;;
2021/02/16 13:17:46;;;;;;;2;0.3;;;;;;;14.85;58.77441;940.6939;;;;
2021/02/16 13:20:17;;;;;;;0.5;0.4;;;;;;;15.31;57.13965;940.6886;;;;
2021/02/16 13:22:43;;;;;;;0.5;0.4;;;;;;;16.53;55.08984;940.5822;;;;
2021/02/16 13:25:15;;;;;;;0.4;0.4;;;;;;;16.94;51.25977;940.5481;;;;
2021/02/16 13:27:41;;;;;;;0.2;0.2;;;;;;;17.57;50.3584;940.5146;;;;
2021/02/16 13:30:16;;;;;;;0.2;0.1;;;;;;;17.88;48.80273;940.5078;;;;
2021/02/16 13:32:49;;;;;;;0.3;0.2;;;;;;;18.4;47.37402;940.4725;;;;
2021/02/16 13:35:21;;;;;;;1.9;0.2;;;;;;;18.82;46.39355;940.4264;;;;
2021/02/16 13:39:13;;;;;;;0.3;0.3;;;;;;;18.32;48.13086;940.4691;;;;
2021/02/16 13:40:13;;;;;;;0.2;0.2;;;;;;;18.77;47.04102;940.4611;;;;
2021/02/16 13:42:40;;;;;;;0.2;0.2;;;;;;;18.09;48.22363;940.4467;;;;
2021/02/16 13:45:23;;;;;;;0.4;0.3;;;;;;;19.04;45.18262;940.4316;;;;
2021/02/16 13:47:44;;;;;;;0.3;0.3;;;;;;;18.34;46.9707;940.4011;;;;
2021/02/16 13:50:25;;;;;;;0.4;0.4;;;;;;;19.27;45.91797;940.4217;;;;
2021/02/16 13:52:24;;;;;;;2.4;0.7;;;;;;;19.58;44.87598;940.4165;;;;
2021/02/16 13:55:46;;;;;;;1.4;0.5;;;;;;;18.63;46.6875;940.3961;;;;
2021/02/16 13:57:29;;;;;;;1.6;1;;;;;;;17.49;49.34082;940.4158;;;;
2021/02/16 14:02:53;;;;;;;0.2;0.2;;;;;;;17.69;49.4082;940.363;;;;
2021/02/16 14:04:37;;;;;;;0.4;0.4;;;;;;;18.77;46.48145;940.2958;;;;
2021/02/16 14:07:25;;;;;;;0.4;0.3;;;;;;;19.01;45.19141;940.3052;;;;
2021/02/16 14:09:27;;;;;;;2;0.6;;;;;;;18.81;45.37988;940.2322;;;;
2021/02/16 14:11:56;;;;;;;0.7;0.7;;;;;;;18.07;46.65234;940.236;;;;
2021/02/16 14:14:26;;;;;;;1.6;0.7;;;;;;;17.4;48.70313;940.2139;;;;
2021/02/16 14:17:02;;;;;;;0.5;0.4;;;;;;;16.58;50.37207;940.2239;;;;
2021/02/16 14:19:29;;;;;;;2.3;0.9;;;;;;;16.26;51.14551;940.181;;;;
2021/02/16 14:21:58;;;;;;;1.4;0.7;;;;;;;15.85;53.50195;940.2056;;;;
2021/02/16 14:24:23;;;;;;;0.7;0.5;;;;;;;17.03;50.14551;940.1766;;;;
